Terminal Aerodrome Forecast
Issued by NWS

Home | Current Version | Previous Version | Text Only | Print | Product List | Glossary On
Versions: 1 2 3 4 5 6 7 8 9 10 11 12
000
FTUS42 TJSJ 290500
TAFISX
TAF
TISX 290530Z 2906/3006 VRB06KT P6SM VCSH FEW025 SCT040
     FM291330 10012KT P6SM SCT025
     FM292200 06006KT P6SM VCSH SCT025 SCT035
      AMD NOT SKED=

USA.gov is the U.S. government's official web portal to all federal, state and local government web resources and services.